sensor_id;sensor_type;location;lat;lon;timestamp;P1;durP1;ratioP1;P2;durP2;ratioP2
27533;SDS011;14973;51.460;7.008;2022-09-16T00:00:19;12.68;;;2.50;;
27533;SDS011;14973;51.460;7.008;2022-09-16T00:02:45;11.10;;;3.10;;
27533;SDS011;14973;51.460;7.008;2022-09-16T00:05:10;17.33;;;2.45;;
27533;SDS011;14973;51.460;7.008;2022-09-16T00:07:36;13.50;;;2.17;;
27533;SDS011;14973;51.460;7.008;2022-09-16T00:10:03;7.43;;;2.28;;
27533;SDS011;14973;51.460;7.008;2022-09-16T00:12:29;11.65;;;2.20;;
27533;SDS011;14973;51.460;7.008;2022-09-16T00:14:54;10.30;;;2.47;;
27533;SDS011;14973;51.460;7.008;2022-09-16T00:17:20;10.43;;;2.00;;
27533;SDS011;14973;51.460;7.008;2022-09-16T00:19:47;10.95;;;2.60;;
27533;SDS011;14973;51.460;7.008;2022-09-16T00:22:14;6.05;;;1.88;;
27533;SDS011;14973;51.460;7.008;2022-09-16T00:24:41;12.90;;;2.33;;
27533;SDS011;14973;51.460;7.008;2022-09-16T00:27:06;14.38;;;2.40;;
27533;SDS011;14973;51.460;7.008;2022-09-16T00:29:33;11.30;;;1.95;;
27533;SDS011;14973;51.460;7.008;2022-09-16T00:31:59;11.30;;;2.40;;
27533;SDS011;14973;51.460;7.008;2022-09-16T00:34:25;8.00;;;2.30;;
27533;SDS011;14973;51.460;7.008;2022-09-16T00:36:50;11.38;;;2.20;;
27533;SDS011;14973;51.460;7.008;2022-09-16T00:39:16;11.32;;;1.95;;
27533;SDS011;14973;51.460;7.008;2022-09-16T00:41:42;8.93;;;1.77;;
27533;SDS011;14973;51.460;7.008;2022-09-16T00:47:12;8.95;;;2.03;;
27533;SDS011;14973;51.460;7.008;2022-09-16T00:49:40;9.50;;;1.73;;
27533;SDS011;14973;51.460;7.008;2022-09-16T00:52:06;10.90;;;2.20;;
27533;SDS011;14973;51.460;7.008;2022-09-16T00:54:33;6.72;;;2.10;;
27533;SDS011;14973;51.460;7.008;2022-09-16T00:57:02;13.43;;;2.10;;
27533;SDS011;14973;51.460;7.008;2022-09-16T00:59:30;11.45;;;2.50;;
27533;SDS011;14973;51.460;7.008;2022-09-16T01:02:01;15.52;;;2.97;;
27533;SDS011;14973;51.460;7.008;2022-09-16T01:04:31;7.20;;;1.85;;
27533;SDS011;14973;51.460;7.008;2022-09-16T01:07:03;8.00;;;1.80;;
27533;SDS011;14973;51.460;7.008;2022-09-16T01:09:29;8.05;;;2.15;;
27533;SDS011;14973;51.460;7.008;2022-09-16T01:11:56;7.80;;;2.33;;
27533;SDS011;14973;51.460;7.008;2022-09-16T01:14:22;9.57;;;2.15;;
27533;SDS011;14973;51.460;7.008;2022-09-16T01:25:43;9.98;;;1.98;;
27533;SDS011;14973;51.460;7.008;2022-09-16T01:31:05;9.63;;;2.20;;
27533;SDS011;14973;51.460;7.008;2022-09-16T01:36:35;14.23;;;2.30;;
27533;SDS011;14973;51.460;7.008;2022-09-16T01:39:14;8.93;;;1.90;;
27533;SDS011;14973;51.460;7.008;2022-09-16T01:41:56;7.28;;;2.33;;
27533;SDS011;14973;51.460;7.008;2022-09-16T01:50:38;14.35;;;2.00;;
27533;SDS011;14973;51.460;7.008;2022-09-16T01:53:17;14.95;;;1.80;;
27533;SDS011;14973;51.460;7.008;2022-09-16T01:55:53;10.65;;;2.40;;
27533;SDS011;14973;51.460;7.008;2022-09-16T01:58:29;9.02;;;2.10;;
27533;SDS011;14973;51.460;7.008;2022-09-16T02:01:03;14.13;;;2.15;;
27533;SDS011;14973;51.460;7.008;2022-09-16T02:03:36;8.05;;;1.65;;
27533;SDS011;14973;51.460;7.008;2022-09-16T02:06:11;11.55;;;1.55;;
27533;SDS011;14973;51.460;7.008;2022-09-16T02:08:43;10.02;;;2.33;;
27533;SDS011;14973;51.460;7.008;2022-09-16T02:11:18;8.65;;;1.80;;
27533;SDS011;14973;51.460;7.008;2022-09-16T02:13:46;8.13;;;1.50;;
27533;SDS011;14973;51.460;7.008;2022-09-16T02:16:37;20.52;;;2.88;;
27533;SDS011;14973;51.460;7.008;2022-09-16T02:19:09;14.45;;;1.75;;
27533;SDS011;14973;51.460;7.008;2022-09-16T02:21:39;6.20;;;1.60;;
27533;SDS011;14973;51.460;7.008;2022-09-16T02:24:10;9.45;;;1.40;;
27533;SDS011;14973;51.460;7.008;2022-09-16T02:26:41;7.43;;;2.15;;
27533;SDS011;14973;51.460;7.008;2022-09-16T02:29:22;11.07;;;1.73;;
27533;SDS011;14973;51.460;7.008;2022-09-16T02:31:51;11.85;;;1.63;;
27533;SDS011;14973;51.460;7.008;2022-09-16T02:34:22;12.18;;;2.15;;
27533;SDS011;14973;51.460;7.008;2022-09-16T02:37:03;6.88;;;1.55;;
27533;SDS011;14973;51.460;7.008;2022-09-16T02:39:33;12.52;;;2.03;;
27533;SDS011;14973;51.460;7.008;2022-09-16T02:42:01;8.73;;;1.70;;
27533;SDS011;14973;51.460;7.008;2022-09-16T02:44:27;10.82;;;2.10;;
27533;SDS011;14973;51.460;7.008;2022-09-16T02:46:58;11.05;;;1.30;;
27533;SDS011;14973;51.460;7.008;2022-09-16T02:55:12;14.75;;;3.08;;
27533;SDS011;14973;51.460;7.008;2022-09-16T02:57:57;9.95;;;1.90;;
27533;SDS011;14973;51.460;7.008;2022-09-16T03:00:22;6.57;;;1.73;;
27533;SDS011;14973;51.460;7.008;2022-09-16T03:02:49;8.52;;;1.85;;
27533;SDS011;14973;51.460;7.008;2022-09-16T03:05:17;12.48;;;1.67;;
27533;SDS011;14973;51.460;7.008;2022-09-16T03:07:42;15.68;;;1.70;;
27533;SDS011;14973;51.460;7.008;2022-09-16T03:10:09;11.40;;;2.15;;
27533;SDS011;14973;51.460;7.008;2022-09-16T03:12:41;9.60;;;1.77;;
27533;SDS011;14973;51.460;7.008;2022-09-16T03:15:31;5.15;;;1.40;;
27533;SDS011;14973;51.460;7.008;2022-09-16T03:21:20;6.68;;;1.90;;
27533;SDS011;14973;51.460;7.008;2022-09-16T03:27:10;11.23;;;2.35;;
27533;SDS011;14973;51.460;7.008;2022-09-16T03:32:26;14.93;;;2.75;;
27533;SDS011;14973;51.460;7.008;2022-09-16T03:34:58;7.90;;;1.63;;
27533;SDS011;14973;51.460;7.008;2022-09-16T03:37:28;10.35;;;1.65;;
27533;SDS011;14973;51.460;7.008;2022-09-16T03:39:58;13.27;;;1.70;;
27533;SDS011;14973;51.460;7.008;2022-09-16T03:42:28;13.45;;;2.20;;
27533;SDS011;14973;51.460;7.008;2022-09-16T03:44:54;12.77;;;1.95;;
27533;SDS011;14973;51.460;7.008;2022-09-16T03:47:20;7.75;;;1.90;;
27533;SDS011;14973;51.460;7.008;2022-09-16T03:49:45;4.88;;;1.60;;
27533;SDS011;14973;51.460;7.008;2022-09-16T03:52:11;6.45;;;1.67;;
27533;SDS011;14973;51.460;7.008;2022-09-16T03:54:36;9.75;;;1.90;;
27533;SDS011;14973;51.460;7.008;2022-09-16T03:57:03;8.60;;;2.03;;
27533;SDS011;14973;51.460;7.008;2022-09-16T03:59:29;9.23;;;1.90;;
27533;SDS011;14973;51.460;7.008;2022-09-16T04:01:55;14.07;;;2.40;;
27533;SDS011;14973;51.460;7.008;2022-09-16T04:04:21;17.88;;;2.55;;
27533;SDS011;14973;51.460;7.008;2022-09-16T04:06:47;7.57;;;1.98;;
27533;SDS011;14973;51.460;7.008;2022-09-16T04:09:13;15.65;;;2.30;;
27533;SDS011;14973;51.460;7.008;2022-09-16T04:11:39;13.27;;;2.63;;
27533;SDS011;14973;51.460;7.008;2022-09-16T04:14:05;15.38;;;2.97;;
27533;SDS011;14973;51.460;7.008;2022-09-16T04:16:31;20.42;;;3.60;;
27533;SDS011;14973;51.460;7.008;2022-09-16T04:18:57;12.05;;;2.67;;
27533;SDS011;14973;51.460;7.008;2022-09-16T04:21:23;13.52;;;2.80;;
27533;SDS011;14973;51.460;7.008;2022-09-16T04:23:50;20.27;;;3.47;;
27533;SDS011;14973;51.460;7.008;2022-09-16T04:26:15;11.60;;;2.42;;
27533;SDS011;14973;51.460;7.008;2022-09-16T04:28:42;12.43;;;2.97;;
27533;SDS011;14973;51.460;7.008;2022-09-16T04:31:11;6.82;;;2.38;;
27533;SDS011;14973;51.460;7.008;2022-09-16T04:33:39;14.68;;;2.90;;
27533;SDS011;14973;51.460;7.008;2022-09-16T04:36:06;12.75;;;3.00;;
27533;SDS011;14973;51.460;7.008;2022-09-16T04:38:38;17.73;;;2.80;;
27533;SDS011;14973;51.460;7.008;2022-09-16T04:41:05;17.45;;;3.28;;
27533;SDS011;14973;51.460;7.008;2022-09-16T04:43:33;10.98;;;2.20;;
27533;SDS011;14973;51.460;7.008;2022-09-16T04:45:59;13.70;;;2.70;;
27533;SDS011;14973;51.460;7.008;2022-09-16T04:48:25;15.15;;;3.00;;
27533;SDS011;14973;51.460;7.008;2022-09-16T04:50:51;15.52;;;2.50;;
27533;SDS011;14973;51.460;7.008;2022-09-16T04:53:18;23.00;;;3.83;;
27533;SDS011;14973;51.460;7.008;2022-09-16T04:55:44;15.02;;;3.33;;
27533;SDS011;14973;51.460;7.008;2022-09-16T04:58:10;24.90;;;3.55;;
27533;SDS011;14973;51.460;7.008;2022-09-16T05:00:37;14.45;;;2.90;;
27533;SDS011;14973;51.460;7.008;2022-09-16T05:03:02;15.07;;;2.72;;
27533;SDS011;14973;51.460;7.008;2022-09-16T05:05:28;9.38;;;2.28;;
27533;SDS011;14973;51.460;7.008;2022-09-16T05:07:54;9.98;;;2.63;;
27533;SDS011;14973;51.460;7.008;2022-09-16T05:10:19;13.38;;;2.70;;
27533;SDS011;14973;51.460;7.008;2022-09-16T05:12:49;11.57;;;2.55;;
27533;SDS011;14973;51.460;7.008;2022-09-16T05:15:18;11.80;;;2.90;;
27533;SDS011;14973;51.460;7.008;2022-09-16T05:17:44;18.38;;;3.40;;
27533;SDS011;14973;51.460;7.008;2022-09-16T05:20:10;14.10;;;3.42;;
27533;SDS011;14973;51.460;7.008;2022-09-16T05:22:36;20.52;;;3.05;;
27533;SDS011;14973;51.460;7.008;2022-09-16T05:25:02;14.55;;;2.40;;
27533;SDS011;14973;51.460;7.008;2022-09-16T05:27:31;15.88;;;2.30;;
27533;SDS011;14973;51.460;7.008;2022-09-16T05:29:58;12.05;;;2.28;;
27533;SDS011;14973;51.460;7.008;2022-09-16T05:32:23;13.48;;;2.63;;
27533;SDS011;14973;51.460;7.008;2022-09-16T05:34:49;15.43;;;3.22;;
27533;SDS011;14973;51.460;7.008;2022-09-16T05:37:17;13.98;;;2.40;;
27533;SDS011;14973;51.460;7.008;2022-09-16T05:39:43;13.63;;;2.65;;
27533;SDS011;14973;51.460;7.008;2022-09-16T05:42:09;13.50;;;2.47;;
27533;SDS011;14973;51.460;7.008;2022-09-16T05:44:34;11.02;;;2.67;;
27533;SDS011;14973;51.460;7.008;2022-09-16T05:47:00;16.02;;;2.58;;
27533;SDS011;14973;51.460;7.008;2022-09-16T05:49:26;12.18;;;3.20;;
27533;SDS011;14973;51.460;7.008;2022-09-16T05:51:52;12.85;;;2.63;;
27533;SDS011;14973;51.460;7.008;2022-09-16T05:54:18;22.48;;;3.63;;
27533;SDS011;14973;51.460;7.008;2022-09-16T05:56:45;16.90;;;2.75;;
27533;SDS011;14973;51.460;7.008;2022-09-16T05:59:12;17.40;;;3.47;;
27533;SDS011;14973;51.460;7.008;2022-09-16T06:01:38;15.20;;;3.47;;
27533;SDS011;14973;51.460;7.008;2022-09-16T06:04:05;20.10;;;3.85;;
27533;SDS011;14973;51.460;7.008;2022-09-16T06:06:35;20.35;;;3.42;;
27533;SDS011;14973;51.460;7.008;2022-09-16T06:09:07;13.75;;;2.92;;
27533;SDS011;14973;51.460;7.008;2022-09-16T06:11:38;16.17;;;3.63;;
27533;SDS011;14973;51.460;7.008;2022-09-16T06:14:06;14.43;;;3.67;;
27533;SDS011;14973;51.460;7.008;2022-09-16T06:16:32;15.02;;;4.18;;
27533;SDS011;14973;51.460;7.008;2022-09-16T06:19:02;19.48;;;3.42;;
27533;SDS011;14973;51.460;7.008;2022-09-16T06:21:29;13.57;;;3.50;;
27533;SDS011;14973;51.460;7.008;2022-09-16T06:23:55;10.48;;;3.92;;
27533;SDS011;14973;51.460;7.008;2022-09-16T06:26:22;16.42;;;3.90;;
27533;SDS011;14973;51.460;7.008;2022-09-16T06:28:50;18.25;;;3.47;;
27533;SDS011;14973;51.460;7.008;2022-09-16T06:31:17;17.65;;;3.90;;
27533;SDS011;14973;51.460;7.008;2022-09-16T06:33:45;26.38;;;5.18;;
27533;SDS011;14973;51.460;7.008;2022-09-16T06:36:12;15.98;;;3.72;;
27533;SDS011;14973;51.460;7.008;2022-09-16T06:38:42;23.20;;;4.15;;
27533;SDS011;14973;51.460;7.008;2022-09-16T06:41:09;14.55;;;3.97;;
27533;SDS011;14973;51.460;7.008;2022-09-16T06:43:36;15.80;;;3.90;;
27533;SDS011;14973;51.460;7.008;2022-09-16T06:46:03;19.30;;;5.25;;
27533;SDS011;14973;51.460;7.008;2022-09-16T06:48:34;24.92;;;4.95;;
27533;SDS011;14973;51.460;7.008;2022-09-16T06:51:03;15.70;;;4.30;;
27533;SDS011;14973;51.460;7.008;2022-09-16T06:53:31;15.05;;;4.55;;
27533;SDS011;14973;51.460;7.008;2022-09-16T06:56:01;12.93;;;4.90;;
27533;SDS011;14973;51.460;7.008;2022-09-16T06:58:30;16.85;;;4.40;;
27533;SDS011;14973;51.460;7.008;2022-09-16T07:00:58;18.42;;;4.38;;
27533;SDS011;14973;51.460;7.008;2022-09-16T07:03:24;13.65;;;4.22;;
27533;SDS011;14973;51.460;7.008;2022-09-16T07:05:56;13.05;;;4.40;;
27533;SDS011;14973;51.460;7.008;2022-09-16T07:08:24;20.50;;;4.45;;
27533;SDS011;14973;51.460;7.008;2022-09-16T07:10:55;15.82;;;3.92;;
27533;SDS011;14973;51.460;7.008;2022-09-16T07:13:22;23.55;;;6.78;;
27533;SDS011;14973;51.460;7.008;2022-09-16T07:15:47;18.80;;;4.95;;
27533;SDS011;14973;51.460;7.008;2022-09-16T07:18:13;20.40;;;4.68;;
27533;SDS011;14973;51.460;7.008;2022-09-16T07:20:39;13.82;;;3.65;;
27533;SDS011;14973;51.460;7.008;2022-09-16T07:23:04;17.83;;;4.65;;
27533;SDS011;14973;51.460;7.008;2022-09-16T07:25:30;14.20;;;5.43;;
27533;SDS011;14973;51.460;7.008;2022-09-16T07:27:56;14.05;;;4.35;;
27533;SDS011;14973;51.460;7.008;2022-09-16T07:30:21;11.70;;;4.03;;
27533;SDS011;14973;51.460;7.008;2022-09-16T07:32:47;15.95;;;3.83;;
27533;SDS011;14973;51.460;7.008;2022-09-16T07:35:13;17.50;;;3.95;;
27533;SDS011;14973;51.460;7.008;2022-09-16T07:37:38;9.15;;;3.40;;
27533;SDS011;14973;51.460;7.008;2022-09-16T07:40:04;14.05;;;3.05;;
27533;SDS011;14973;51.460;7.008;2022-09-16T07:42:30;11.05;;;2.50;;
27533;SDS011;14973;51.460;7.008;2022-09-16T07:44:56;10.57;;;2.58;;
27533;SDS011;14973;51.460;7.008;2022-09-16T07:47:21;7.80;;;2.00;;
27533;SDS011;14973;51.460;7.008;2022-09-16T07:49:47;9.13;;;1.73;;
27533;SDS011;14973;51.460;7.008;2022-09-16T07:52:15;7.72;;;1.65;;
27533;SDS011;14973;51.460;7.008;2022-09-16T07:54:40;7.70;;;1.65;;
27533;SDS011;14973;51.460;7.008;2022-09-16T07:57:06;5.63;;;1.70;;
27533;SDS011;14973;51.460;7.008;2022-09-16T07:59:32;9.00;;;1.80;;
27533;SDS011;14973;51.460;7.008;2022-09-16T08:01:58;5.38;;;1.30;;
27533;SDS011;14973;51.460;7.008;2022-09-16T08:04:23;9.57;;;1.90;;
27533;SDS011;14973;51.460;7.008;2022-09-16T08:06:49;8.43;;;1.40;;
27533;SDS011;14973;51.460;7.008;2022-09-16T08:09:15;7.53;;;1.65;;
27533;SDS011;14973;51.460;7.008;2022-09-16T08:11:40;8.80;;;1.60;;
27533;SDS011;14973;51.460;7.008;2022-09-16T08:14:06;8.88;;;1.85;;
27533;SDS011;14973;51.460;7.008;2022-09-16T08:16:32;9.40;;;1.25;;
27533;SDS011;14973;51.460;7.008;2022-09-16T08:18:57;3.47;;;0.95;;
27533;SDS011;14973;51.460;7.008;2022-09-16T08:21:25;6.07;;;1.70;;
27533;SDS011;14973;51.460;7.008;2022-09-16T08:23:52;5.65;;;1.25;;
27533;SDS011;14973;51.460;7.008;2022-09-16T08:26:20;5.68;;;1.20;;
27533;SDS011;14973;51.460;7.008;2022-09-16T08:28:47;6.72;;;1.48;;
27533;SDS011;14973;51.460;7.008;2022-09-16T08:31:13;7.88;;;1.48;;
27533;SDS011;14973;51.460;7.008;2022-09-16T08:33:40;10.48;;;1.52;;
27533;SDS011;14973;51.460;7.008;2022-09-16T08:36:09;9.07;;;1.85;;
27533;SDS011;14973;51.460;7.008;2022-09-16T08:38:39;7.68;;;1.70;;
27533;SDS011;14973;51.460;7.008;2022-09-16T08:45:10;5.28;;;1.40;;
27533;SDS011;14973;51.460;7.008;2022-09-16T08:49:55;7.25;;;1.70;;
27533;SDS011;14973;51.460;7.008;2022-09-16T08:52:31;5.78;;;1.33;;
27533;SDS011;14973;51.460;7.008;2022-09-16T09:00:21;7.95;;;1.48;;
27533;SDS011;14973;51.460;7.008;2022-09-16T09:02:49;6.32;;;1.23;;
27533;SDS011;14973;51.460;7.008;2022-09-16T09:05:32;4.85;;;1.45;;
27533;SDS011;14973;51.460;7.008;2022-09-16T09:08:11;8.45;;;1.40;;
27533;SDS011;14973;51.460;7.008;2022-09-16T09:10:44;15.10;;;1.55;;
27533;SDS011;14973;51.460;7.008;2022-09-16T09:16:15;7.40;;;1.05;;
27533;SDS011;14973;51.460;7.008;2022-09-16T09:21:43;6.15;;;1.38;;
27533;SDS011;14973;51.460;7.008;2022-09-16T09:27:30;9.10;;;1.35;;
27533;SDS011;14973;51.460;7.008;2022-09-16T09:30:16;5.80;;;1.00;;
27533;SDS011;14973;51.460;7.008;2022-09-16T09:35:24;6.88;;;1.15;;
27533;SDS011;14973;51.460;7.008;2022-09-16T09:38:10;6.82;;;1.83;;
27533;SDS011;14973;51.460;7.008;2022-09-16T09:41:10;5.20;;;1.23;;
27533;SDS011;14973;51.460;7.008;2022-09-16T09:43:44;8.27;;;1.50;;
27533;SDS011;14973;51.460;7.008;2022-09-16T09:46:54;7.65;;;1.40;;
27533;SDS011;14973;51.460;7.008;2022-09-16T09:49:28;7.80;;;1.30;;
27533;SDS011;14973;51.460;7.008;2022-09-16T09:52:18;8.00;;;1.50;;
27533;SDS011;14973;51.460;7.008;2022-09-16T09:54:50;9.20;;;1.30;;
27533;SDS011;14973;51.460;7.008;2022-09-16T09:57:19;15.88;;;1.40;;
27533;SDS011;14973;51.460;7.008;2022-09-16T09:59:59;7.03;;;1.35;;
27533;SDS011;14973;51.460;7.008;2022-09-16T10:02:37;6.65;;;1.05;;
27533;SDS011;14973;51.460;7.008;2022-09-16T10:05:05;14.70;;;1.75;;
27533;SDS011;14973;51.460;7.008;2022-09-16T10:07:36;7.43;;;1.40;;
27533;SDS011;14973;51.460;7.008;2022-09-16T10:10:10;12.95;;;1.60;;
27533;SDS011;14973;51.460;7.008;2022-09-16T10:13:06;7.80;;;1.27;;
27533;SDS011;14973;51.460;7.008;2022-09-16T10:15:33;5.85;;;1.27;;
27533;SDS011;14973;51.460;7.008;2022-09-16T10:17:59;3.92;;;1.17;;
27533;SDS011;14973;51.460;7.008;2022-09-16T10:20:30;8.35;;;1.70;;
27533;SDS011;14973;51.460;7.008;2022-09-16T10:23:05;5.80;;;1.38;;
27533;SDS011;14973;51.460;7.008;2022-09-16T10:25:38;11.70;;;1.55;;
27533;SDS011;14973;51.460;7.008;2022-09-16T10:28:16;10.70;;;1.45;;
27533;SDS011;14973;51.460;7.008;2022-09-16T10:30:46;7.00;;;1.40;;
27533;SDS011;14973;51.460;7.008;2022-09-16T10:33:22;9.13;;;2.67;;
27533;SDS011;14973;51.460;7.008;2022-09-16T10:36:00;9.65;;;1.65;;
27533;SDS011;14973;51.460;7.008;2022-09-16T10:38:39;10.52;;;1.80;;
27533;SDS011;14973;51.460;7.008;2022-09-16T10:41:07;9.88;;;2.00;;
27533;SDS011;14973;51.460;7.008;2022-09-16T10:43:44;5.53;;;1.55;;
27533;SDS011;14973;51.460;7.008;2022-09-16T10:46:15;7.88;;;1.00;;
27533;SDS011;14973;51.460;7.008;2022-09-16T10:48:43;5.28;;;1.27;;
27533;SDS011;14973;51.460;7.008;2022-09-16T10:51:28;7.30;;;1.27;;
27533;SDS011;14973;51.460;7.008;2022-09-16T10:53:58;8.35;;;1.50;;
27533;SDS011;14973;51.460;7.008;2022-09-16T10:56:29;5.13;;;1.20;;
27533;SDS011;14973;51.460;7.008;2022-09-16T10:59:05;9.50;;;1.20;;
27533;SDS011;14973;51.460;7.008;2022-09-16T11:01:46;7.15;;;1.10;;
27533;SDS011;14973;51.460;7.008;2022-09-16T11:21:17;6.57;;;1.50;;
27533;SDS011;14973;51.460;7.008;2022-09-16T11:26:38;4.95;;;1.20;;
27533;SDS011;14973;51.460;7.008;2022-09-16T11:29:16;7.60;;;1.15;;
27533;SDS011;14973;51.460;7.008;2022-09-16T11:32:12;13.48;;;1.88;;
27533;SDS011;14973;51.460;7.008;2022-09-16T11:35:02;7.97;;;1.17;;
27533;SDS011;14973;51.460;7.008;2022-09-16T11:38:11;6.07;;;1.10;;
27533;SDS011;14973;51.460;7.008;2022-09-16T11:41:08;14.25;;;1.60;;
27533;SDS011;14973;51.460;7.008;2022-09-16T11:46:56;8.55;;;1.65;;
27533;SDS011;14973;51.460;7.008;2022-09-16T11:51:56;1.80;;;0.90;;
27533;SDS011;14973;51.460;7.008;2022-09-16T11:57:19;4.05;;;0.85;;
27533;SDS011;14973;51.460;7.008;2022-09-16T11:59:56;4.50;;;1.10;;
27533;SDS011;14973;51.460;7.008;2022-09-16T12:05:17;5.70;;;0.90;;
27533;SDS011;14973;51.460;7.008;2022-09-16T12:07:52;2.75;;;0.65;;
27533;SDS011;14973;51.460;7.008;2022-09-16T12:10:34;3.90;;;0.80;;
27533;SDS011;14973;51.460;7.008;2022-09-16T12:13:16;2.75;;;0.70;;
27533;SDS011;14973;51.460;7.008;2022-09-16T12:15:53;5.40;;;0.98;;
27533;SDS011;14973;51.460;7.008;2022-09-16T12:23:50;8.75;;;1.08;;
27533;SDS011;14973;51.460;7.008;2022-09-16T12:29:04;10.95;;;1.17;;
27533;SDS011;14973;51.460;7.008;2022-09-16T12:31:43;6.97;;;1.00;;
27533;SDS011;14973;51.460;7.008;2022-09-16T12:34:29;7.30;;;1.02;;
27533;SDS011;14973;51.460;7.008;2022-09-16T12:37:19;5.50;;;1.27;;
27533;SDS011;14973;51.460;7.008;2022-09-16T12:39:59;3.20;;;1.00;;
27533;SDS011;14973;51.460;7.008;2022-09-16T12:47:39;3.20;;;1.30;;
27533;SDS011;14973;51.460;7.008;2022-09-16T12:50:51;6.80;;;1.40;;
27533;SDS011;14973;51.460;7.008;2022-09-16T12:53:41;5.22;;;1.10;;
27533;SDS011;14973;51.460;7.008;2022-09-16T12:59:52;5.10;;;1.20;;
27533;SDS011;14973;51.460;7.008;2022-09-16T13:02:45;2.53;;;1.25;;
27533;SDS011;14973;51.460;7.008;2022-09-16T13:07:52;9.68;;;1.25;;
27533;SDS011;14973;51.460;7.008;2022-09-16T13:10:23;6.65;;;1.60;;
27533;SDS011;14973;51.460;7.008;2022-09-16T13:12:57;10.00;;;1.63;;
27533;SDS011;14973;51.460;7.008;2022-09-16T13:15:27;5.03;;;1.10;;
27533;SDS011;14973;51.460;7.008;2022-09-16T13:18:05;5.15;;;1.95;;
27533;SDS011;14973;51.460;7.008;2022-09-16T13:20:41;8.80;;;1.33;;
27533;SDS011;14973;51.460;7.008;2022-09-16T13:23:18;6.50;;;1.10;;
27533;SDS011;14973;51.460;7.008;2022-09-16T13:26:08;5.50;;;0.95;;
27533;SDS011;14973;51.460;7.008;2022-09-16T13:31:27;13.15;;;1.83;;
27533;SDS011;14973;51.460;7.008;2022-09-16T13:38:49;3.85;;;1.67;;
27533;SDS011;14973;51.460;7.008;2022-09-16T13:41:33;8.70;;;1.58;;
27533;SDS011;14973;51.460;7.008;2022-09-16T13:44:02;8.15;;;1.23;;
27533;SDS011;14973;51.460;7.008;2022-09-16T13:46:48;7.57;;;1.60;;
27533;SDS011;14973;51.460;7.008;2022-09-16T13:49:23;13.65;;;1.58;;
27533;SDS011;14973;51.460;7.008;2022-09-16T13:51:51;10.18;;;1.40;;
27533;SDS011;14973;51.460;7.008;2022-09-16T13:54:18;12.63;;;2.05;;
27533;SDS011;14973;51.460;7.008;2022-09-16T13:59:57;7.20;;;1.20;;
27533;SDS011;14973;51.460;7.008;2022-09-16T14:11:06;5.65;;;1.92;;
27533;SDS011;14973;51.460;7.008;2022-09-16T14:13:47;4.50;;;1.58;;
27533;SDS011;14973;51.460;7.008;2022-09-16T14:16:19;3.40;;;1.52;;
27533;SDS011;14973;51.460;7.008;2022-09-16T14:18:52;5.38;;;2.17;;
27533;SDS011;14973;51.460;7.008;2022-09-16T14:21:18;7.63;;;1.70;;
27533;SDS011;14973;51.460;7.008;2022-09-16T14:23:46;3.10;;;1.30;;
27533;SDS011;14973;51.460;7.008;2022-09-16T14:26:13;15.50;;;2.20;;
27533;SDS011;14973;51.460;7.008;2022-09-16T14:28:41;5.78;;;2.03;;
27533;SDS011;14973;51.460;7.008;2022-09-16T14:31:17;5.45;;;1.80;;
27533;SDS011;14973;51.460;7.008;2022-09-16T14:36:22;8.70;;;1.90;;
27533;SDS011;14973;51.460;7.008;2022-09-16T14:39:03;8.20;;;2.00;;
27533;SDS011;14973;51.460;7.008;2022-09-16T14:46:54;3.28;;;1.00;;
27533;SDS011;14973;51.460;7.008;2022-09-16T14:49:40;4.13;;;1.27;;
27533;SDS011;14973;51.460;7.008;2022-09-16T14:52:14;12.65;;;2.08;;
27533;SDS011;14973;51.460;7.008;2022-09-16T14:54:43;8.40;;;1.60;;
27533;SDS011;14973;51.460;7.008;2022-09-16T14:57:13;7.53;;;2.72;;
27533;SDS011;14973;51.460;7.008;2022-09-16T14:59:41;10.50;;;1.33;;
27533;SDS011;14973;51.460;7.008;2022-09-16T15:02:16;7.03;;;1.63;;
27533;SDS011;14973;51.460;7.008;2022-09-16T15:04:54;4.65;;;1.38;;
27533;SDS011;14973;51.460;7.008;2022-09-16T15:07:29;7.00;;;1.42;;
27533;SDS011;14973;51.460;7.008;2022-09-16T15:12:39;8.00;;;1.20;;
27533;SDS011;14973;51.460;7.008;2022-09-16T15:15:16;6.80;;;1.67;;
27533;SDS011;14973;51.460;7.008;2022-09-16T15:17:59;9.02;;;1.63;;
27533;SDS011;14973;51.460;7.008;2022-09-16T15:20:34;4.75;;;1.33;;
27533;SDS011;14973;51.460;7.008;2022-09-16T15:23:03;10.05;;;1.90;;
27533;SDS011;14973;51.460;7.008;2022-09-16T15:25:31;10.45;;;1.50;;
27533;SDS011;14973;51.460;7.008;2022-09-16T15:28:14;11.57;;;1.52;;
27533;SDS011;14973;51.460;7.008;2022-09-16T15:30:46;10.57;;;2.03;;
27533;SDS011;14973;51.460;7.008;2022-09-16T15:36:00;16.70;;;2.38;;
27533;SDS011;14973;51.460;7.008;2022-09-16T15:38:27;7.35;;;1.80;;
27533;SDS011;14973;51.460;7.008;2022-09-16T15:41:05;9.82;;;1.27;;
27533;SDS011;14973;51.460;7.008;2022-09-16T15:43:36;6.25;;;1.52;;
27533;SDS011;14973;51.460;7.008;2022-09-16T15:46:17;9.77;;;1.27;;
27533;SDS011;14973;51.460;7.008;2022-09-16T15:54:21;10.98;;;1.48;;
27533;SDS011;14973;51.460;7.008;2022-09-16T15:56:56;6.82;;;1.27;;
27533;SDS011;14973;51.460;7.008;2022-09-16T15:59:31;7.60;;;1.48;;
27533;SDS011;14973;51.460;7.008;2022-09-16T16:02:06;7.32;;;1.95;;
27533;SDS011;14973;51.460;7.008;2022-09-16T16:05:06;8.63;;;1.58;;
27533;SDS011;14973;51.460;7.008;2022-09-16T16:07:38;17.63;;;1.52;;
27533;SDS011;14973;51.460;7.008;2022-09-16T16:10:13;6.60;;;1.67;;
27533;SDS011;14973;51.460;7.008;2022-09-16T16:12:42;6.47;;;1.80;;
27533;SDS011;14973;51.460;7.008;2022-09-16T16:15:10;13.00;;;2.15;;
27533;SDS011;14973;51.460;7.008;2022-09-16T16:17:36;10.13;;;2.22;;
27533;SDS011;14973;51.460;7.008;2022-09-16T16:20:03;12.23;;;2.35;;
27533;SDS011;14973;51.460;7.008;2022-09-16T16:22:29;9.23;;;1.80;;
27533;SDS011;14973;51.460;7.008;2022-09-16T16:24:55;9.13;;;1.70;;
27533;SDS011;14973;51.460;7.008;2022-09-16T16:27:21;10.07;;;2.08;;
27533;SDS011;14973;51.460;7.008;2022-09-16T16:29:46;6.75;;;1.83;;
27533;SDS011;14973;51.460;7.008;2022-09-16T16:32:14;7.13;;;1.92;;
27533;SDS011;14973;51.460;7.008;2022-09-16T16:34:44;8.30;;;2.08;;
27533;SDS011;14973;51.460;7.008;2022-09-16T16:37:12;10.15;;;2.35;;
27533;SDS011;14973;51.460;7.008;2022-09-16T16:39:39;20.25;;;2.75;;
27533;SDS011;14973;51.460;7.008;2022-09-16T16:42:05;10.07;;;2.35;;
27533;SDS011;14973;51.460;7.008;2022-09-16T16:44:32;17.40;;;3.03;;
27533;SDS011;14973;51.460;7.008;2022-09-16T16:46:58;14.65;;;2.97;;
27533;SDS011;14973;51.460;7.008;2022-09-16T16:49:24;12.10;;;2.65;;
27533;SDS011;14973;51.460;7.008;2022-09-16T16:51:50;9.52;;;2.85;;
27533;SDS011;14973;51.460;7.008;2022-09-16T16:54:18;12.52;;;2.42;;
27533;SDS011;14973;51.460;7.008;2022-09-16T16:56:45;18.40;;;2.78;;
27533;SDS011;14973;51.460;7.008;2022-09-16T16:59:11;8.50;;;1.55;;
27533;SDS011;14973;51.460;7.008;2022-09-16T17:01:37;14.25;;;1.70;;
27533;SDS011;14973;51.460;7.008;2022-09-16T17:04:04;6.50;;;1.30;;
27533;SDS011;14973;51.460;7.008;2022-09-16T17:06:30;9.43;;;1.50;;
27533;SDS011;14973;51.460;7.008;2022-09-16T17:08:56;15.43;;;2.05;;
27533;SDS011;14973;51.460;7.008;2022-09-16T17:11:22;8.90;;;1.45;;
27533;SDS011;14973;51.460;7.008;2022-09-16T17:13:50;12.80;;;1.88;;
27533;SDS011;14973;51.460;7.008;2022-09-16T17:16:18;18.05;;;2.08;;
27533;SDS011;14973;51.460;7.008;2022-09-16T17:18:46;12.07;;;1.90;;
27533;SDS011;14973;51.460;7.008;2022-09-16T17:23:40;14.27;;;2.25;;
27533;SDS011;14973;51.460;7.008;2022-09-16T17:26:07;11.38;;;1.90;;
27533;SDS011;14973;51.460;7.008;2022-09-16T17:28:34;18.67;;;2.78;;
27533;SDS011;14973;51.460;7.008;2022-09-16T17:31:06;10.90;;;3.17;;
27533;SDS011;14973;51.460;7.008;2022-09-16T17:33:33;16.58;;;3.42;;
27533;SDS011;14973;51.460;7.008;2022-09-16T17:35:59;11.65;;;3.10;;